CST,Max TemperatureF,Mean TemperatureF,Min TemperatureF,Max Dew PointF,MeanDew PointF,Min DewpointF,Max Humidity, Mean Humidity, Min Humidity, Max Sea Level PressureIn, Mean Sea Level PressureIn, Min Sea Level PressureIn, Max VisibilityMiles, Mean VisibilityMiles, Min VisibilityMiles, Max Wind SpeedMPH, Mean Wind SpeedMPH, Max Gust SpeedMPH,PrecipitationIn, CloudCover, Events, WindDirDegrees
2014-1-1,44,35,26,34,28,23,93,73,53,30.24,30.12,29.97,10,10,9,14,8,,0.01,2,,191
2014-1-2,35,24,10,32,14,7,93,79,68,30.46,30.21,29.96,10,8,2,12,6,20,0.00,6,,335
2014-1-3,28,16,3,16,10,0,92,72,55,30.54,30.37,30.12,10,10,10,16,4,23,0.00,0,,173
2014-1-4,39,32,24,27,20,12,70,58,49,30.11,30.04,29.98,10,10,10,24,13,31,0.00,4,,191
2014-1-5,35,19,3,34,20,-4,100,85,61,30.24,29.92,29.68,10,4,0,16,5,28,0.57,7,,354
2014-1-6,3,-6,-14,-6,-13,-20,92,67,55,30.50,30.43,30.25,10,10,2,15,5,23,0.00,2,,282
2014-1-7,19,3,-13,10,0,-18,100,75,58,30.49,30.39,30.27,10,10,9,17,5,21,0.00,2,,188
2014-1-8,32,24,15,25,19,10,86,73,60,30.45,30.38,30.30,10,10,10,15,8,,0.00,5,,199
2014-1-9,33,28,23,32,27,19,93,87,75,30.45,30.33,30.19,10,7,2,9,6,,0.01,8,,109
2014-1-10,44,38,33,45,37,30,100,93,81,30.19,29.92,29.61,10,8,0,14,5,18,0.33,8,,154
2014-1-11,44,37,30,45,35,27,100,82,65,29.93,29.73,29.56,10,9,0,14,6,23,0.01,5,,251
2014-1-12,51,38,24,37,31,21,100,72,50,30.04,29.91,29.78,10,10,8,20,7,26,0.00,0,,187
2014-1-13,51,42,30,45,36,27,87,69,50,29.89,29.76,29.70,10,10,10,22,12,26,0.00,2,,223
2014-1-14,46,34,23,36,26,12,100,72,47,30.06,29.91,29.82,10,10,5,16,3,21,0.00,2,,274
2014-1-15,30,24,17,16,13,10,93,64,51,30.19,30.12,30.04,10,10,10,12,5,17,0.00,3,,284
2014-1-16,44,32,21,34,25,16,93,72,49,30.03,29.83,29.71,10,10,2,18,11,28,0.00,7,,215
2014-1-17,33,24,14,27,11,3,80,69,50,30.12,30.03,29.81,10,9,1,13,7,23,0.00,7,,272
2014-1-18,37,24,12,34,20,7,93,74,52,30.08,29.88,29.70,10,9,3,20,6,30,0.01,6,,211
2014-1-19,42,33,24,28,24,18,80,68,53,30.08,29.95,29.80,10,10,10,20,10,26,0.01,3,,233
2014-1-20,46,36,26,34,28,21,87,71,53,29.96,29.90,29.79,10,10,10,9,4,,0.00,2,,274
2014-1-21,37,22,6,32,10,1,86,72,53,30.31,30.18,29.86,10,9,1,16,6,28,0.00,4,,336
2014-1-22,26,17,8,18,10,1,79,69,54,30.26,30.14,30.03,10,10,6,15,6,22,0.00,7,,229
2014-1-23,17,10,3,7,-2,-8,92,64,52,30.72,30.60,30.28,10,10,10,12,6,17,0.00,1,,316
2014-1-24,28,14,1,9,4,-4,100,61,40,30.70,30.32,29.82,10,10,10,30,10,34,0.00,1,,203
2014-1-25,44,30,17,32,11,0,75,42,21,30.00,29.83,29.69,10,10,10,24,13,37,0.00,4,,262
2014-1-26,57,40,23,34,20,5,70,47,35,29.92,29.70,29.58,10,10,10,22,9,39,0.00,4,,216
2014-1-27,28,17,6,14,-5,-8,67,45,33,30.49,30.32,29.95,10,10,10,14,8,31,0.00,2,,339
2014-1-28,17,9,1,1,-6,-9,92,58,30,30.54,30.45,30.39,10,10,10,10,3,,0.00,0,,320
2014-1-29,30,16,1,7,3,-4,92,58,32,30.39,30.32,30.20,10,10,9,17,5,23,0.00,0,,194
2014-1-30,41,30,19,16,10,7,58,42,26,30.19,30.02,29.88,10,10,10,26,14,36,0.00,1,,191
2014-1-31,41,36,30,34,19,12,100,54,31,30.12,30.04,29.98,10,8,2,10,5,,0.00,7,,87